createdAt,value
2022-10-02T00:00:08.041Z,11.18
2022-10-02T00:02:54.674Z,11.15
2022-10-02T00:05:42.158Z,11.15
2022-10-02T00:08:38.894Z,11.13
2022-10-02T00:11:33.927Z,11.13
2022-10-02T00:14:20.639Z,11.11
2022-10-02T00:17:07.289Z,11.09
2022-10-02T00:19:55.156Z,11.06
2022-10-02T00:22:53.715Z,11.07
2022-10-02T00:25:48.929Z,11.07
2022-10-02T00:28:41.031Z,11.03
2022-10-02T00:31:36.533Z,11.03
2022-10-02T00:34:35.844Z,11.01
2022-10-02T00:37:41.535Z,11.00
2022-10-02T00:40:39.701Z,10.98
2022-10-02T00:43:37.024Z,10.96
2022-10-02T00:46:42.639Z,10.95
2022-10-02T00:49:57.005Z,10.94
2022-10-02T00:53:01.978Z,10.91
2022-10-02T00:56:07.432Z,10.90
2022-10-02T00:58:54.181Z,10.88
2022-10-02T01:01:42.752Z,10.87
2022-10-02T01:04:36.109Z,10.87
2022-10-02T01:07:22.935Z,10.84
2022-10-02T01:10:10.553Z,10.85
2022-10-02T01:12:57.662Z,10.83
2022-10-02T01:15:44.964Z,10.83
2022-10-02T01:18:31.702Z,10.82
2022-10-02T01:21:21.602Z,10.82
2022-10-02T01:24:14.331Z,10.81
2022-10-02T01:27:01.003Z,10.81
2022-10-02T01:29:48.815Z,10.81
2022-10-02T01:32:37.249Z,10.80
2022-10-02T01:35:25.261Z,10.81
2022-10-02T01:38:13.667Z,10.81
2022-10-02T01:41:00.370Z,10.81
2022-10-02T01:43:47.012Z,10.81
2022-10-02T01:46:59.796Z,10.82
2022-10-02T01:50:05.189Z,10.81
2022-10-02T01:53:27.478Z,10.81
2022-10-02T01:56:26.655Z,10.81
2022-10-02T01:59:32.279Z,10.81
2022-10-02T02:02:22.190Z,10.80
2022-10-02T02:05:12.060Z,10.80
2022-10-02T02:07:58.841Z,10.81
2022-10-02T02:10:57.730Z,10.81
2022-10-02T02:13:44.409Z,10.82
2022-10-02T02:16:49.857Z,10.82
2022-10-02T02:19:47.053Z,10.83
2022-10-02T02:22:34.492Z,10.83
2022-10-02T02:25:24.206Z,10.84
2022-10-02T02:28:12.437Z,10.83
2022-10-02T02:30:59.411Z,10.84
2022-10-02T02:33:46.838Z,10.83
2022-10-02T02:36:36.072Z,10.83
2022-10-02T02:39:31.180Z,10.84
2022-10-02T02:42:21.680Z,10.84
2022-10-02T02:45:12.814Z,10.86
2022-10-02T02:48:04.826Z,10.83
2022-10-02T02:50:52.795Z,10.84
2022-10-02T02:53:49.673Z,10.86
2022-10-02T02:56:36.587Z,10.85
2022-10-02T02:59:23.481Z,10.86
2022-10-02T03:02:12.675Z,10.87
2022-10-02T03:04:59.332Z,10.87
2022-10-02T03:07:49.214Z,10.88
2022-10-02T03:10:58.918Z,10.88
2022-10-02T03:13:48.723Z,10.88
2022-10-02T03:16:40.225Z,10.88
2022-10-02T03:19:50.629Z,10.89
2022-10-02T03:22:45.917Z,10.90
2022-10-02T03:25:40.239Z,10.92
2022-10-02T03:28:54.359Z,10.93
2022-10-02T03:31:38.929Z,10.92
2022-10-02T03:34:25.617Z,10.94
2022-10-02T03:37:12.260Z,10.94
2022-10-02T03:39:59.909Z,10.94
2022-10-02T03:42:46.580Z,10.95
2022-10-02T03:45:50.612Z,10.95
2022-10-02T03:48:37.926Z,10.95
2022-10-02T03:51:24.611Z,10.96
2022-10-02T03:54:18.155Z,10.98
2022-10-02T03:57:09.429Z,10.98
2022-10-02T04:00:04.904Z,10.99
2022-10-02T04:03:10.906Z,10.99
2022-10-02T04:06:14.451Z,11.00
2022-10-02T04:09:03.409Z,11.01
2022-10-02T04:11:52.304Z,11.02
2022-10-02T04:14:44.572Z,11.02
2022-10-02T04:17:31.263Z,11.03
2022-10-02T04:20:31.609Z,11.02
2022-10-02T04:23:20.840Z,11.04
2022-10-02T04:26:09.828Z,11.05
2022-10-02T04:29:28.961Z,11.04
2022-10-02T04:32:16.889Z,11.06
2022-10-02T04:35:12.266Z,11.06
2022-10-02T04:38:05.101Z,11.08
2022-10-02T04:40:51.690Z,11.06
2022-10-02T04:43:48.074Z,11.08
2022-10-02T04:46:53.050Z,11.10
2022-10-02T04:49:52.260Z,11.09
2022-10-02T04:52:58.027Z,11.09
2022-10-02T04:55:47.707Z,11.10
2022-10-02T04:58:41.615Z,11.12
2022-10-02T05:01:37.651Z,11.11
2022-10-02T05:04:47.694Z,11.11
2022-10-02T05:07:46.320Z,11.10
2022-10-02T05:10:46.337Z,11.10
2022-10-02T05:13:32.972Z,11.10
2022-10-02T05:16:40.722Z,11.09
2022-10-02T05:19:46.284Z,11.11
2022-10-02T05:22:36.018Z,11.11
2022-10-02T05:25:22.711Z,11.10
2022-10-02T05:28:12.694Z,11.11
2022-10-02T05:31:04.262Z,11.11
2022-10-02T05:33:56.831Z,11.12
2022-10-02T05:36:43.503Z,11.12
2022-10-02T05:39:33.586Z,11.12
2022-10-02T05:42:23.370Z,11.13
2022-10-02T05:45:30.321Z,11.13
2022-10-02T05:48:30.489Z,11.13
2022-10-02T05:51:18.892Z,11.12
2022-10-02T05:54:19.338Z,11.13
2022-10-02T05:57:26.331Z,11.14
2022-10-02T06:00:22.166Z,11.14
2022-10-02T06:03:22.362Z,11.14
2022-10-02T06:06:15.211Z,11.15
2022-10-02T06:09:03.749Z,11.16
2022-10-02T06:12:09.258Z,11.16
2022-10-02T06:14:59.230Z,11.16
2022-10-02T06:17:47.841Z,11.16
2022-10-02T06:20:36.340Z,11.18
2022-10-02T06:23:36.711Z,11.17
2022-10-02T06:28:51.784Z,11.18
2022-10-02T06:31:39.384Z,11.19
2022-10-02T06:34:28.992Z,11.20
2022-10-02T06:37:34.669Z,11.21
2022-10-02T06:40:26.387Z,11.22
2022-10-02T06:43:32.734Z,11.23
2022-10-02T06:46:32.543Z,11.23
2022-10-02T06:49:59.213Z,11.24
2022-10-02T06:56:20.921Z,11.25
2022-10-02T06:59:14.136Z,11.27
2022-10-02T07:02:11.139Z,11.28
2022-10-02T07:04:59.008Z,11.29
2022-10-02T07:08:12.300Z,11.32
2022-10-02T07:11:11.007Z,11.32
2022-10-02T07:14:04.774Z,11.33
2022-10-02T07:16:51.467Z,11.34
2022-10-02T07:19:47.876Z,11.34
2022-10-02T07:22:46.159Z,11.35
2022-10-02T07:25:51.984Z,11.37
2022-10-02T07:28:41.387Z,11.38
2022-10-02T07:31:50.496Z,11.40
2022-10-02T07:34:52.162Z,11.41
2022-10-02T07:37:42.832Z,11.43
2022-10-02T07:40:46.305Z,11.45
2022-10-02T07:43:32.929Z,11.47
2022-10-02T07:46:39.422Z,11.49
2022-10-02T07:49:41.631Z,11.49
2022-10-02T07:52:47.107Z,11.51
2022-10-02T07:55:35.999Z,11.54
2022-10-02T07:58:27.072Z,11.55
2022-10-02T08:01:16.521Z,11.57
2022-10-02T08:04:04.204Z,11.59
2022-10-02T08:06:52.105Z,11.63
2022-10-02T08:09:39.854Z,11.68
2022-10-02T08:12:40.182Z,11.74
2022-10-02T08:15:27.539Z,11.78
2022-10-02T08:18:33.623Z,11.84
2022-10-02T08:21:21.752Z,11.89
2022-10-02T08:24:16.261Z,11.93
2022-10-02T08:27:05.540Z,11.97
2022-10-02T08:29:53.251Z,11.98
2022-10-02T08:32:39.919Z,12.01
2022-10-02T08:35:31.223Z,12.03
2022-10-02T08:38:29.315Z,12.07
2022-10-02T08:41:29.255Z,12.11
2022-10-02T08:44:36.448Z,12.14
2022-10-02T08:47:33.193Z,12.19
2022-10-02T08:50:30.151Z,12.23
2022-10-02T08:53:22.029Z,12.24
2022-10-02T08:56:08.678Z,12.29
2022-10-02T08:59:07.400Z,12.31
2022-10-02T09:01:59.888Z,12.34
2022-10-02T09:04:58.587Z,12.34
2022-10-02T09:07:54.337Z,12.36
2022-10-02T09:10:51.563Z,12.39
2022-10-02T09:13:48.679Z,12.42
2022-10-02T09:16:50.090Z,12.45
2022-10-02T09:19:48.925Z,12.48
2022-10-02T09:22:42.167Z,12.50
2022-10-02T09:25:31.622Z,12.56
2022-10-02T09:28:18.288Z,12.58
2022-10-02T09:31:14.764Z,12.58
2022-10-02T09:34:20.329Z,12.59
2022-10-02T09:37:12.979Z,12.56
2022-10-02T09:40:15.169Z,12.56
2022-10-02T09:43:01.810Z,12.56
2022-10-02T09:46:07.498Z,12.56
2022-10-02T09:49:02.751Z,12.56
2022-10-02T09:52:08.221Z,12.56
2022-10-02T09:55:03.738Z,12.56
2022-10-02T09:58:25.852Z,12.58
2022-10-02T10:01:26.079Z,12.59
2022-10-02T10:04:17.053Z,12.59
2022-10-02T10:07:15.391Z,12.60
2022-10-02T10:10:09.991Z,12.61
2022-10-02T10:12:56.627Z,12.62
2022-10-02T10:16:02.205Z,12.62
2022-10-02T10:19:07.876Z,12.64
2022-10-02T10:22:01.041Z,12.65
2022-10-02T10:24:53.784Z,12.66
2022-10-02T10:27:49.091Z,12.68
2022-10-02T10:30:45.227Z,12.69
2022-10-02T10:33:40.018Z,12.70
2022-10-02T10:36:46.828Z,12.71
2022-10-02T10:39:33.624Z,12.71
2022-10-02T10:43:03.425Z,12.74
2022-10-02T10:46:09.019Z,12.75
2022-10-02T10:48:56.160Z,12.75
2022-10-02T10:51:42.783Z,12.77
2022-10-02T10:54:32.202Z,12.79
2022-10-02T10:57:19.062Z,12.81
2022-10-02T11:00:11.936Z,12.82
2022-10-02T11:03:11.365Z,12.82
2022-10-02T11:06:07.243Z,12.83
2022-10-02T11:09:16.902Z,12.84
2022-10-02T11:12:22.886Z,12.85
2022-10-02T11:15:19.754Z,12.87
2022-10-02T11:18:15.873Z,12.88
2022-10-02T11:21:05.548Z,12.88
2022-10-02T11:24:10.816Z,12.90
2022-10-02T11:27:19.165Z,12.90
2022-10-02T11:30:10.926Z,12.91
2022-10-02T11:33:38.212Z,12.94
2022-10-02T11:36:29.069Z,12.95
2022-10-02T11:39:22.158Z,12.95
2022-10-02T11:42:10.092Z,12.96
2022-10-02T11:45:04.116Z,12.95
2022-10-02T11:48:26.551Z,12.97
2022-10-02T11:51:13.321Z,12.98
2022-10-02T11:54:11.931Z,12.97
2022-10-02T11:57:01.353Z,12.97
2022-10-02T12:00:17.509Z,12.97
2022-10-02T12:03:14.862Z,12.97
2022-10-02T12:06:20.418Z,12.97
2022-10-02T12:09:19.051Z,12.98
2022-10-02T12:12:23.463Z,12.99
2022-10-02T12:15:24.285Z,13.01
2022-10-02T12:18:11.006Z,13.01
2022-10-02T12:21:35.321Z,13.00
2022-10-02T12:24:49.442Z,13.04
2022-10-02T12:27:41.919Z,13.02
2022-10-02T12:30:36.109Z,13.04
2022-10-02T12:33:44.126Z,13.04
2022-10-02T12:36:43.445Z,13.04
2022-10-02T12:39:35.092Z,13.05
2022-10-02T12:42:41.037Z,13.05
2022-10-02T12:45:47.679Z,13.04
2022-10-02T12:48:41.134Z,13.04
2022-10-02T12:51:27.744Z,13.03
2022-10-02T12:54:19.210Z,13.02
2022-10-02T12:57:39.273Z,13.02
2022-10-02T13:00:31.187Z,13.02
2022-10-02T13:03:33.087Z,13.03
2022-10-02T13:06:24.299Z,13.02
2022-10-02T13:09:30.247Z,13.03
2022-10-02T13:12:28.827Z,13.02
2022-10-02T13:15:25.937Z,13.01
2022-10-02T13:18:17.230Z,13.01
2022-10-02T13:21:19.443Z,13.01
2022-10-02T13:24:16.197Z,13.00
2022-10-02T13:27:18.516Z,13.00
2022-10-02T13:30:05.863Z,13.01
2022-10-02T13:32:55.650Z,13.01
2022-10-02T13:35:45.701Z,13.02
2022-10-02T13:38:32.339Z,13.02
2022-10-02T13:41:26.185Z,13.03
2022-10-02T13:44:25.646Z,13.03
2022-10-02T13:47:22.507Z,13.02
2022-10-02T13:50:21.405Z,13.04
2022-10-02T13:53:30.916Z,13.05
2022-10-02T13:56:32.851Z,13.05
2022-10-02T13:59:25.227Z,13.06
2022-10-02T14:02:17.506Z,13.05
2022-10-02T14:05:04.273Z,13.07
2022-10-02T14:08:20.803Z,13.06
2022-10-02T14:11:28.987Z,13.07
2022-10-02T14:14:22.872Z,13.08
2022-10-02T14:17:19.632Z,13.09
2022-10-02T14:20:10.191Z,13.08
2022-10-02T14:23:02.810Z,13.10
2022-10-02T14:25:55.595Z,13.10
2022-10-02T14:28:45.247Z,13.10
2022-10-02T14:31:52.171Z,13.12
2022-10-02T14:34:57.812Z,13.11
2022-10-02T14:37:50.733Z,13.12
2022-10-02T14:40:40.890Z,13.13
2022-10-02T14:43:32.818Z,13.14
2022-10-02T14:46:29.093Z,13.15
2022-10-02T14:49:18.807Z,13.15
2022-10-02T14:52:20.778Z,13.16
2022-10-02T14:55:25.643Z,13.16
2022-10-02T14:58:31.061Z,13.16
2022-10-02T15:01:24.499Z,13.16
2022-10-02T15:04:19.111Z,13.16
2022-10-02T15:07:09.785Z,13.16
2022-10-02T15:10:16.248Z,13.16
2022-10-02T15:13:10.081Z,13.17
2022-10-02T15:16:15.823Z,13.16
2022-10-02T15:19:06.033Z,13.16
2022-10-02T15:21:52.627Z,13.16
2022-10-02T15:24:45.162Z,13.16
2022-10-02T15:27:52.138Z,13.16
2022-10-02T15:30:39.927Z,13.16
2022-10-02T15:33:31.762Z,13.15
2022-10-02T15:36:22.146Z,13.15
2022-10-02T15:39:17.958Z,13.15
2022-10-02T15:42:05.622Z,13.14
2022-10-02T15:44:52.460Z,13.14
2022-10-02T15:47:58.817Z,13.13
2022-10-02T15:50:51.212Z,13.13
2022-10-02T15:53:51.422Z,13.12
2022-10-02T15:56:48.235Z,13.12
2022-10-02T15:59:43.976Z,13.11
2022-10-02T16:02:53.202Z,13.10
2022-10-02T16:05:43.997Z,13.09
2022-10-02T16:08:30.614Z,13.10
2022-10-02T16:11:36.246Z,13.08
2022-10-02T16:14:27.914Z,13.07
2022-10-02T16:17:14.521Z,13.07
2022-10-02T16:20:08.151Z,13.06
2022-10-02T16:22:55.410Z,13.05
2022-10-02T16:25:48.239Z,13.04
2022-10-02T16:28:44.760Z,13.03
2022-10-02T16:31:50.396Z,13.00
2022-10-02T16:34:50.522Z,13.00
2022-10-02T16:37:43.662Z,13.00
2022-10-02T16:40:36.718Z,12.99
2022-10-02T16:43:36.761Z,12.98
2022-10-02T16:46:36.889Z,12.97
2022-10-02T16:49:28.245Z,12.96
2022-10-02T16:52:16.986Z,12.95
2022-10-02T16:55:21.384Z,12.94
2022-10-02T16:58:24.442Z,12.93
2022-10-02T17:01:32.554Z,12.93
2022-10-02T17:04:38.235Z,12.92
2022-10-02T17:07:29.807Z,12.90
2022-10-02T17:10:19.261Z,12.89
2022-10-02T17:13:25.748Z,12.89
2022-10-02T17:16:31.056Z,12.86
2022-10-02T17:19:17.699Z,12.86
2022-10-02T17:22:11.762Z,12.84
2022-10-02T17:25:14.777Z,12.83
2022-10-02T17:28:05.701Z,12.82
2022-10-02T17:30:52.391Z,12.80
2022-10-02T17:33:46.338Z,12.79
2022-10-02T17:36:36.186Z,12.78
2022-10-02T17:39:27.092Z,12.76
2022-10-02T17:42:20.196Z,12.76
2022-10-02T17:45:30.107Z,12.74
2022-10-02T17:48:23.383Z,12.71
2022-10-02T17:51:47.531Z,12.70
2022-10-02T17:54:56.292Z,12.70
2022-10-02T17:58:05.967Z,12.67
2022-10-02T18:01:06.256Z,12.65
2022-10-02T18:04:14.311Z,12.65
2022-10-02T18:07:33.559Z,12.63
2022-10-02T18:10:26.999Z,12.62
2022-10-02T18:13:34.152Z,12.60
2022-10-02T18:16:28.715Z,12.59
2022-10-02T18:19:21.562Z,12.57
2022-10-02T18:22:08.266Z,12.57
2022-10-02T18:24:55.190Z,12.55
2022-10-02T18:27:42.168Z,12.54
2022-10-02T18:30:38.142Z,12.53
2022-10-02T18:33:31.495Z,12.51
2022-10-02T18:36:22.796Z,12.50
2022-10-02T18:39:17.439Z,12.49
2022-10-02T18:42:22.459Z,12.49
2022-10-02T18:45:27.187Z,12.48
2022-10-02T18:48:20.014Z,12.46
2022-10-02T18:51:09.552Z,12.46
2022-10-02T18:54:06.377Z,12.45
2022-10-02T18:57:05.379Z,12.43
2022-10-02T18:59:53.232Z,12.43
2022-10-02T19:02:46.397Z,12.40
2022-10-02T19:05:46.475Z,12.40
2022-10-02T19:08:56.114Z,12.39
2022-10-02T19:11:45.054Z,12.38
2022-10-02T19:14:34.260Z,12.36
2022-10-02T19:17:25.905Z,12.34
2022-10-02T19:20:34.080Z,12.32
2022-10-02T19:23:21.983Z,12.32
2022-10-02T19:26:18.911Z,12.29
2022-10-02T19:29:08.431Z,12.28
2022-10-02T19:31:55.754Z,12.28
2022-10-02T19:34:43.562Z,12.26
2022-10-02T19:37:32.959Z,12.25
2022-10-02T19:40:23.926Z,12.24
2022-10-02T19:43:24.602Z,12.22
2022-10-02T19:46:14.136Z,12.20
2022-10-02T19:49:01.730Z,12.18
2022-10-02T19:51:48.562Z,12.17
2022-10-02T19:54:35.170Z,12.16
2022-10-02T19:57:22.035Z,12.16
2022-10-02T20:00:14.373Z,12.15
2022-10-02T20:03:01.206Z,12.14
2022-10-02T20:05:49.738Z,12.12
2022-10-02T20:08:37.847Z,12.10
2022-10-02T20:11:27.748Z,12.09
2022-10-02T20:14:22.061Z,12.10
2022-10-02T20:17:09.430Z,12.09
2022-10-02T20:19:57.729Z,12.06
2022-10-02T20:23:04.289Z,12.06
2022-10-02T20:25:52.740Z,12.03
2022-10-02T20:28:44.737Z,12.02
2022-10-02T20:31:39.550Z,12.02
2022-10-02T20:34:29.589Z,12.00
2022-10-02T20:37:18.257Z,11.98
2022-10-02T20:40:21.864Z,11.98
2022-10-02T20:43:15.377Z,11.95
2022-10-02T20:46:07.700Z,11.94
2022-10-02T20:49:08.094Z,11.92
2022-10-02T20:52:09.898Z,11.91
2022-10-02T20:55:01.708Z,11.88
2022-10-02T20:58:07.645Z,11.86
2022-10-02T21:01:00.170Z,11.83
2022-10-02T21:03:53.046Z,11.81
2022-10-02T21:06:50.619Z,11.78
2022-10-02T21:09:59.513Z,11.76
2022-10-02T21:13:01.562Z,11.74
2022-10-02T21:15:51.725Z,11.72
2022-10-02T21:18:48.149Z,11.70
2022-10-02T21:21:37.859Z,11.67
2022-10-02T21:24:35.871Z,11.66
2022-10-02T21:27:31.847Z,11.66
2022-10-02T21:30:18.875Z,11.65
2022-10-02T21:33:17.726Z,11.62
2022-10-02T21:36:07.378Z,11.60
2022-10-02T21:39:09.393Z,11.57
2022-10-02T21:42:17.600Z,11.56
2022-10-02T21:45:04.627Z,11.54
2022-10-02T21:48:10.189Z,11.52
2022-10-02T21:50:56.859Z,11.51
2022-10-02T21:54:02.218Z,11.49
2022-10-02T21:57:07.716Z,11.48
2022-10-02T22:00:15.712Z,11.45
2022-10-02T22:03:11.364Z,11.44
2022-10-02T22:05:58.131Z,11.40
2022-10-02T22:08:51.558Z,11.38
2022-10-02T22:11:38.427Z,11.36
2022-10-02T22:14:42.905Z,11.35
2022-10-02T22:17:51.472Z,11.32
2022-10-02T22:20:47.216Z,11.30
2022-10-02T22:23:52.942Z,11.28
2022-10-02T22:26:39.588Z,11.26
2022-10-02T22:29:41.469Z,11.24
2022-10-02T22:33:06.144Z,11.23
2022-10-02T22:36:11.381Z,11.19
2022-10-02T22:39:03.731Z,11.18
2022-10-02T22:41:50.346Z,11.15
2022-10-02T22:44:41.946Z,11.11
2022-10-02T22:47:49.274Z,11.09
2022-10-02T22:50:36.757Z,11.05
2022-10-02T22:53:44.830Z,11.03
2022-10-02T22:56:31.492Z,11.02
2022-10-02T22:59:32.389Z,10.99
2022-10-02T23:02:36.528Z,10.96
2022-10-02T23:05:29.300Z,10.94
2022-10-02T23:08:31.250Z,10.91
2022-10-02T23:11:22.275Z,10.88
2022-10-02T23:14:20.214Z,10.86
2022-10-02T23:17:09.892Z,10.83
2022-10-02T23:19:59.067Z,10.81
2022-10-02T23:23:06.132Z,10.78
2022-10-02T23:25:55.465Z,10.76
2022-10-02T23:28:44.179Z,10.73
2022-10-02T23:31:40.280Z,10.71
2022-10-02T23:34:33.156Z,10.68
2022-10-02T23:37:24.306Z,10.66
2022-10-02T23:40:21.735Z,10.63
2022-10-02T23:43:08.532Z,10.61
2022-10-02T23:46:02.916Z,10.58
2022-10-02T23:48:50.012Z,10.56
2022-10-02T23:51:55.147Z,10.55
2022-10-02T23:55:00.779Z,10.54
2022-10-02T23:58:03.800Z,10.52
